KBAM

Battle Mountain Airport

Battle Mountain, Nevada, USA
METAR KBAM 181435Z AUTO 15003KT 10SM CLR 13/M06 A3028 RMK AO1
Observed Flight Rules
Aug-18 @ 14:35 UTC (16 minutes ago) Visual Flight Rules
Wind Visibility Clouds
150° at 3 knots 10 miles
  • Clear skies
Temperatures Readings
Current 13°C / 55°F
Dewpoint -6°C / 21°F
Humidity 26%
Altimeter 30.28" Hg
Pressure 1025 hPa
METAR KBAM 181435Z AUTO 15003KT 10SM CLR 13/M06 A3028 RMK AO1
Observed Flight Rules
Aug-18 @ 14:35 UTC
(16 minutes ago)
VFR
Wind Visibility
150° at 3 knots 10 miles
Clouds
  • Clear skies
Temperature Dewpoint
13°C / 55°F -6°C / 21°F
Humidity Altimeter Pressure
26% 30.28" Hg 1025 hPa